N39VA KFCI-KFCI
Flight info
| Callsign | N39VA |
|---|---|
| Flight time | N/A |
| Altitude | 1200 |
| Route | VFR |
| Aircraft | EC45/L-G/C |
Departure
| Time | 2026-05-03 21:06 |
|---|---|
| Airport | Richmond Executive-Chesterfield County Airport (KFCI) |
Arrival
| Time | N/A |
|---|---|
| Airport | Richmond Executive-Chesterfield County Airport (KFCI) |
| Time | Latitude | Longitude | Altitude | Speed | Heading |
|---|---|---|---|---|---|
| 2026-05-03 21:06 | 37.38657 | -77.46061 | 971 ft | 144 kts | 101° |
| 2026-05-03 21:06 | 37.38445 | -77.44830 | 976 ft | 144 kts | 101° |
| 2026-05-03 21:06 | 37.38266 | -77.43611 | 974 ft | 138 kts | 99° |
| 2026-05-03 21:07 | 37.38130 | -77.42446 | 977 ft | 132 kts | 97° |
| 2026-05-03 21:07 | 37.38034 | -77.41311 | 976 ft | 128 kts | 95° |
| 2026-05-03 21:07 | 37.37975 | -77.40208 | 976 ft | 125 kts | 92° |
| 2026-05-03 21:07 | 37.37904 | -77.39127 | 980 ft | 123 kts | 95° |
| 2026-05-03 21:08 | 37.37811 | -77.38061 | 983 ft | 122 kts | 96° |
| 2026-05-03 21:08 | 37.37703 | -77.37026 | 975 ft | 120 kts | 96° |
| 2026-05-03 21:08 | 37.37581 | -77.35993 | 972 ft | 119 kts | 98° |
| 2026-05-03 21:08 | 37.37466 | -77.34959 | 971 ft | 120 kts | 94° |
| 2026-05-03 21:09 | 37.37482 | -77.33915 | 961 ft | 120 kts | 84° |
| 2026-05-03 21:09 | 37.37569 | -77.32863 | 940 ft | 123 kts | 81° |
| 2026-05-03 21:09 | 37.37663 | -77.31765 | 940 ft | 129 kts | 82° |
| 2026-05-03 21:09 | 37.37736 | -77.30624 | 929 ft | 132 kts | 84° |
| 2026-05-03 21:10 | 37.37779 | -77.29453 | 935 ft | 136 kts | 86° |
| 2026-05-03 21:10 | 37.37804 | -77.28259 | 931 ft | 137 kts | 86° |
| 2026-05-03 21:10 | 37.37851 | -77.27070 | 929 ft | 136 kts | 83° |
| 2026-05-03 21:10 | 37.38020 | -77.25899 | 929 ft | 137 kts | 74° |
| 2026-05-03 21:11 | 37.38311 | -77.24771 | 928 ft | 137 kts | 66° |
| 2026-05-03 21:11 | 37.38712 | -77.23678 | 928 ft | 138 kts | 61° |
| 2026-05-03 21:11 | 37.39128 | -77.22587 | 935 ft | 138 kts | 61° |
| 2026-05-03 21:11 | 37.39541 | -77.21498 | 928 ft | 137 kts | 62° |
| 2026-05-03 21:12 | 37.39944 | -77.20420 | 931 ft | 136 kts | 63° |
| 2026-05-03 21:12 | 37.40342 | -77.19344 | 933 ft | 135 kts | 62° |
| 2026-05-03 21:12 | 37.40732 | -77.18275 | 933 ft | 134 kts | 63° |
| 2026-05-03 21:12 | 37.41119 | -77.17212 | 928 ft | 133 kts | 63° |
| 2026-05-03 21:13 | 37.41502 | -77.16153 | 933 ft | 132 kts | 62° |
| 2026-05-03 21:13 | 37.41880 | -77.15095 | 928 ft | 133 kts | 62° |
| 2026-05-03 21:13 | 37.42251 | -77.14028 | 931 ft | 133 kts | 63° |
| 2026-05-03 21:13 | 37.42614 | -77.12946 | 932 ft | 135 kts | 64° |
| 2026-05-03 21:14 | 37.42975 | -77.11846 | 934 ft | 136 kts | 64° |
| 2026-05-03 21:14 | 37.43332 | -77.10746 | 933 ft | 135 kts | 65° |
| 2026-05-03 21:14 | 37.43677 | -77.09663 | 934 ft | 135 kts | 67° |
| 2026-05-03 21:14 | 37.44025 | -77.08548 | 934 ft | 135 kts | 66° |
| 2026-05-03 21:15 | 37.44359 | -77.07457 | 938 ft | 135 kts | 66° |
| 2026-05-03 21:15 | 37.44592 | -77.06307 | 935 ft | 137 kts | 81° |
| 2026-05-03 21:15 | 37.44542 | -77.05102 | 941 ft | 139 kts | 98° |
| 2026-05-03 21:15 | 37.44354 | -77.03916 | 942 ft | 138 kts | 103° |
| 2026-05-03 21:16 | 37.44081 | -77.02761 | 945 ft | 137 kts | 108° |
| 2026-05-03 21:16 | 37.43759 | -77.01630 | 938 ft | 137 kts | 110° |
| 2026-05-03 21:16 | 37.43446 | -77.00493 | 937 ft | 138 kts | 109° |
| 2026-05-03 21:16 | 37.43150 | -76.99342 | 935 ft | 138 kts | 107° |
| 2026-05-03 21:17 | 37.42878 | -76.98184 | 940 ft | 138 kts | 104° |
| 2026-05-03 21:17 | 37.42721 | -76.97410 | 942 ft | 137 kts | 103° |
| 2026-05-03 21:17 | 37.42465 | -76.95838 | 937 ft | 137 kts | 100° |
| 2026-05-03 21:17 | 37.42346 | -76.94642 | 940 ft | 138 kts | 94° |
| 2026-05-03 21:18 | 37.42326 | -76.93428 | 940 ft | 139 kts | 89° |
| 2026-05-03 21:18 | 37.42323 | -76.92219 | 938 ft | 139 kts | 89° |
| 2026-05-03 21:18 | 37.42317 | -76.90999 | 936 ft | 139 kts | 88° |
| 2026-05-03 21:18 | 37.42319 | -76.89803 | 937 ft | 138 kts | 88° |
| 2026-05-03 21:19 | 37.42333 | -76.88592 | 934 ft | 138 kts | 87° |
| 2026-05-03 21:19 | 37.42355 | -76.87388 | 935 ft | 137 kts | 88° |
| 2026-05-03 21:19 | 37.42383 | -76.86190 | 936 ft | 136 kts | 88° |
| 2026-05-03 21:19 | 37.42391 | -76.85003 | 936 ft | 135 kts | 90° |
| 2026-05-03 21:20 | 37.42320 | -76.83829 | 939 ft | 134 kts | 98° |
| 2026-05-03 21:20 | 37.42139 | -76.82679 | 939 ft | 134 kts | 103° |
| 2026-05-03 21:20 | 37.41884 | -76.81552 | 933 ft | 134 kts | 108° |
| 2026-05-03 21:20 | 37.41550 | -76.80456 | 932 ft | 134 kts | 115° |
| 2026-05-03 21:21 | 37.41104 | -76.79428 | 933 ft | 134 kts | 123° |
| 2026-05-03 21:21 | 37.40553 | -76.78482 | 935 ft | 134 kts | 133° |
| 2026-05-03 21:21 | 37.39934 | -76.77626 | 936 ft | 133 kts | 135° |
| 2026-05-03 21:21 | 37.39263 | -76.76829 | 936 ft | 132 kts | 141° |
| 2026-05-03 21:22 | 37.38560 | -76.76093 | 938 ft | 131 kts | 145° |
| 2026-05-03 21:22 | 37.37839 | -76.75402 | 937 ft | 130 kts | 147° |
| 2026-05-03 21:22 | 37.37096 | -76.74754 | 928 ft | 130 kts | 151° |
| 2026-05-03 21:22 | 37.36336 | -76.74152 | 923 ft | 128 kts | 153° |
| 2026-05-03 21:23 | 37.35556 | -76.73599 | 928 ft | 129 kts | 156° |
| 2026-05-03 21:23 | 37.34770 | -76.73042 | 925 ft | 131 kts | 152° |
| 2026-05-03 21:23 | 37.34054 | -76.72332 | 923 ft | 132 kts | 140° |
| 2026-05-03 21:23 | 37.33436 | -76.71477 | 922 ft | 133 kts | 129° |
| 2026-05-03 21:24 | 37.32869 | -76.70569 | 928 ft | 133 kts | 131° |
| 2026-05-03 21:24 | 37.32199 | -76.69770 | 925 ft | 133 kts | 146° |
| 2026-05-03 21:24 | 37.31453 | -76.69096 | 924 ft | 132 kts | 151° |
| 2026-05-03 21:24 | 37.30683 | -76.68485 | 924 ft | 130 kts | 152° |
| 2026-05-03 21:25 | 37.29908 | -76.67906 | 920 ft | 129 kts | 154° |
| 2026-05-03 21:25 | 37.29129 | -76.67344 | 925 ft | 129 kts | 154° |
| 2026-05-03 21:25 | 37.28354 | -76.66765 | 921 ft | 130 kts | 150° |
| 2026-05-03 21:25 | 37.27605 | -76.66127 | 923 ft | 130 kts | 149° |
| 2026-05-03 21:26 | 37.26852 | -76.65489 | 928 ft | 131 kts | 149° |
| 2026-05-03 21:26 | 37.26092 | -76.64866 | 928 ft | 130 kts | 151° |
| 2026-05-03 21:26 | 37.25398 | -76.64280 | 920 ft | 129 kts | 149° |
| 2026-05-03 21:26 | 37.24659 | -76.63636 | 925 ft | 129 kts | 148° |
| 2026-05-03 21:27 | 37.23935 | -76.62973 | 919 ft | 128 kts | 147° |
| 2026-05-03 21:27 | 37.23243 | -76.62261 | 924 ft | 129 kts | 142° |
| 2026-05-03 21:27 | 37.22604 | -76.61494 | 926 ft | 129 kts | 138° |
| 2026-05-03 21:27 | 37.22049 | -76.60606 | 927 ft | 130 kts | 122° |
| 2026-05-03 21:28 | 37.21683 | -76.59565 | 924 ft | 130 kts | 111° |
| 2026-05-03 21:28 | 37.21281 | -76.58548 | 927 ft | 130 kts | 121° |
| 2026-05-03 21:28 | 37.20770 | -76.57625 | 924 ft | 129 kts | 130° |
| 2026-05-03 21:28 | 37.20153 | -76.56817 | 922 ft | 127 kts | 141° |
| 2026-05-03 21:29 | 37.19451 | -76.56151 | 923 ft | 126 kts | 151° |
| 2026-05-03 21:29 | 37.18678 | -76.55637 | 923 ft | 126 kts | 160° |
| 2026-05-03 21:29 | 37.17851 | -76.55289 | 928 ft | 126 kts | 169° |
| 2026-05-03 21:29 | 37.16994 | -76.55074 | 923 ft | 125 kts | 173° |
| 2026-05-03 21:30 | 37.16179 | -76.54659 | 933 ft | 128 kts | 154° |
| 2026-05-03 21:30 | 37.15412 | -76.54084 | 931 ft | 129 kts | 152° |
| 2026-05-03 21:30 | 37.14635 | -76.53515 | 930 ft | 130 kts | 154° |
| 2026-05-03 21:30 | 37.13851 | -76.52975 | 932 ft | 130 kts | 154° |
| 2026-05-03 21:31 | 37.13062 | -76.52428 | 934 ft | 130 kts | 152° |
| 2026-05-03 21:31 | 37.12337 | -76.51744 | 933 ft | 131 kts | 139° |
| 2026-05-03 21:31 | 37.11798 | -76.50830 | 932 ft | 131 kts | 118° |
| 2026-05-03 21:31 | 37.11512 | -76.49749 | 932 ft | 131 kts | 102° |
| 2026-05-03 21:32 | 37.11288 | -76.48648 | 933 ft | 131 kts | 107° |
| 2026-05-03 21:32 | 37.10883 | -76.47633 | 932 ft | 131 kts | 125° |
| 2026-05-03 21:32 | 37.10250 | -76.46825 | 934 ft | 130 kts | 145° |
| 2026-05-03 21:32 | 37.09502 | -76.46201 | 931 ft | 129 kts | 150° |
| 2026-05-03 21:33 | 37.08749 | -76.45585 | 937 ft | 129 kts | 148° |
| 2026-05-03 21:33 | 37.08053 | -76.44910 | 937 ft | 128 kts | 140° |
| 2026-05-03 21:33 | 37.07448 | -76.44101 | 931 ft | 128 kts | 129° |
| 2026-05-03 21:33 | 37.06905 | -76.43223 | 928 ft | 127 kts | 127° |
| 2026-05-03 21:34 | 37.06368 | -76.42347 | 925 ft | 126 kts | 128° |
| 2026-05-03 21:34 | 37.05830 | -76.41479 | 923 ft | 126 kts | 130° |
| 2026-05-03 21:34 | 37.05281 | -76.40626 | 916 ft | 126 kts | 132° |
| 2026-05-03 21:34 | 37.04683 | -76.39826 | 922 ft | 126 kts | 137° |
| 2026-05-03 21:35 | 37.03964 | -76.39222 | 923 ft | 125 kts | 167° |
| 2026-05-03 21:35 | 37.03145 | -76.39379 | 920 ft | 120 kts | 214° |
| 2026-05-03 21:35 | 37.02653 | -76.40177 | 920 ft | 116 kts | 250° |
| 2026-05-03 21:35 | 37.02535 | -76.41160 | 931 ft | 114 kts | 270° |
| 2026-05-03 21:36 | 37.02557 | -76.42138 | 921 ft | 112 kts | 269° |
| 2026-05-03 21:36 | 37.02354 | -76.43080 | 921 ft | 112 kts | 251° |
| 2026-05-03 21:36 | 37.02025 | -76.43961 | 922 ft | 112 kts | 244° |
| 2026-05-03 21:36 | 37.01601 | -76.44782 | 925 ft | 113 kts | 238° |
| 2026-05-03 21:37 | 37.01116 | -76.45553 | 927 ft | 112 kts | 236° |
| 2026-05-03 21:37 | 37.00602 | -76.46291 | 924 ft | 113 kts | 231° |
| 2026-05-03 21:37 | 37.00009 | -76.46957 | 926 ft | 115 kts | 225° |
| 2026-05-03 21:37 | 36.99377 | -76.47587 | 926 ft | 116 kts | 224° |
| 2026-05-03 21:38 | 36.98783 | -76.48252 | 926 ft | 116 kts | 228° |
| 2026-05-03 21:38 | 36.98218 | -76.48977 | 933 ft | 116 kts | 230° |
| 2026-05-03 21:38 | 36.97652 | -76.49697 | 933 ft | 116 kts | 229° |
| 2026-05-03 21:38 | 36.97075 | -76.50403 | 931 ft | 115 kts | 227° |
| 2026-05-03 21:39 | 36.96494 | -76.51091 | 939 ft | 115 kts | 226° |
| 2026-05-03 21:39 | 36.96058 | -76.51901 | 936 ft | 112 kts | 252° |
| 2026-05-03 21:39 | 36.95923 | -76.52847 | 937 ft | 110 kts | 269° |
| 2026-05-03 21:39 | 36.96029 | -76.53791 | 942 ft | 110 kts | 285° |
| 2026-05-03 21:40 | 36.96358 | -76.54658 | 938 ft | 111 kts | 300° |
| 2026-05-03 21:40 | 36.96778 | -76.55464 | 934 ft | 111 kts | 303° |
| 2026-05-03 21:40 | 36.97239 | -76.56232 | 931 ft | 110 kts | 307° |
| 2026-05-03 21:40 | 36.97741 | -76.56962 | 929 ft | 111 kts | 310° |
| 2026-05-03 21:41 | 36.98275 | -76.57641 | 933 ft | 111 kts | 314° |
| 2026-05-03 21:41 | 36.98849 | -76.58279 | 928 ft | 110 kts | 317° |
| 2026-05-03 21:41 | 36.99462 | -76.58864 | 927 ft | 111 kts | 322° |
| 2026-05-03 21:41 | 37.00108 | -76.59397 | 930 ft | 111 kts | 324° |
| 2026-05-03 21:42 | 37.00784 | -76.59875 | 929 ft | 112 kts | 329° |
| 2026-05-03 21:42 | 37.01491 | -76.60293 | 931 ft | 113 kts | 333° |
| 2026-05-03 21:42 | 37.02220 | -76.60656 | 929 ft | 112 kts | 335° |
| 2026-05-03 21:42 | 37.02958 | -76.60962 | 926 ft | 111 kts | 340° |
| 2026-05-03 21:43 | 37.03704 | -76.61205 | 920 ft | 111 kts | 343° |
| 2026-05-03 21:43 | 37.04465 | -76.61383 | 923 ft | 112 kts | 347° |
| 2026-05-03 21:43 | 37.05241 | -76.61494 | 918 ft | 113 kts | 352° |
| 2026-05-03 21:43 | 37.06015 | -76.61579 | 921 ft | 113 kts | 345° |
| 2026-05-03 21:44 | 37.06743 | -76.61932 | 924 ft | 111 kts | 329° |
| 2026-05-03 21:44 | 37.07427 | -76.62386 | 925 ft | 111 kts | 329° |
| 2026-05-03 21:44 | 37.08063 | -76.62923 | 919 ft | 110 kts | 318° |
| 2026-05-03 21:44 | 37.08539 | -76.63668 | 926 ft | 110 kts | 302° |
| 2026-05-03 21:45 | 37.09001 | -76.64423 | 925 ft | 109 kts | 306° |
| 2026-05-03 21:45 | 37.09479 | -76.65155 | 923 ft | 108 kts | 307° |
| 2026-05-03 21:45 | 37.09949 | -76.65896 | 924 ft | 108 kts | 307° |
| 2026-05-03 21:45 | 37.10419 | -76.66633 | 918 ft | 108 kts | 308° |
| 2026-05-03 21:46 | 37.10882 | -76.67376 | 919 ft | 109 kts | 307° |
| 2026-05-03 21:46 | 37.11352 | -76.68129 | 923 ft | 110 kts | 307° |
| 2026-05-03 21:46 | 37.11839 | -76.68870 | 922 ft | 110 kts | 307° |
| 2026-05-03 21:46 | 37.12333 | -76.69604 | 929 ft | 110 kts | 307° |
| 2026-05-03 21:47 | 37.12813 | -76.70321 | 930 ft | 107 kts | 307° |
| 2026-05-03 21:47 | 37.13286 | -76.71043 | 925 ft | 104 kts | 307° |
| 2026-05-03 21:47 | 37.13738 | -76.71738 | 923 ft | 104 kts | 308° |
| 2026-05-03 21:47 | 37.14184 | -76.72458 | 930 ft | 105 kts | 307° |
| 2026-05-03 21:48 | 37.14630 | -76.73182 | 920 ft | 105 kts | 307° |
| 2026-05-03 21:48 | 37.15088 | -76.73905 | 922 ft | 108 kts | 307° |
| 2026-05-03 21:48 | 37.15572 | -76.74640 | 925 ft | 110 kts | 307° |
| 2026-05-03 21:48 | 37.16059 | -76.75378 | 924 ft | 109 kts | 307° |
| 2026-05-03 21:49 | 37.16556 | -76.76103 | 923 ft | 110 kts | 307° |
| 2026-05-03 21:49 | 37.17056 | -76.76839 | 925 ft | 111 kts | 308° |
| 2026-05-03 21:49 | 37.17535 | -76.77569 | 925 ft | 109 kts | 307° |
| 2026-05-03 21:49 | 37.18022 | -76.78303 | 927 ft | 110 kts | 307° |
| 2026-05-03 21:50 | 37.18507 | -76.79048 | 926 ft | 110 kts | 307° |
| 2026-05-03 21:50 | 37.18995 | -76.79787 | 922 ft | 110 kts | 306° |
| 2026-05-03 21:50 | 37.19489 | -76.80516 | 924 ft | 110 kts | 308° |
| 2026-05-03 21:50 | 37.19969 | -76.81255 | 927 ft | 109 kts | 307° |
| 2026-05-03 21:51 | 37.20437 | -76.81997 | 922 ft | 108 kts | 304° |
| 2026-05-03 21:51 | 37.20819 | -76.82801 | 924 ft | 107 kts | 298° |
| 2026-05-03 21:51 | 37.21159 | -76.83634 | 925 ft | 107 kts | 293° |
| 2026-05-03 21:51 | 37.21445 | -76.84494 | 923 ft | 107 kts | 292° |
| 2026-05-03 21:52 | 37.21729 | -76.85360 | 923 ft | 108 kts | 292° |
| 2026-05-03 21:52 | 37.22017 | -76.86228 | 928 ft | 108 kts | 292° |
| 2026-05-03 21:52 | 37.22306 | -76.87100 | 926 ft | 108 kts | 292° |
| 2026-05-03 21:52 | 37.22593 | -76.87967 | 925 ft | 107 kts | 292° |
| 2026-05-03 21:53 | 37.22788 | -76.88540 | 927 ft | 108 kts | 291° |
| 2026-05-03 21:53 | 37.23094 | -76.89401 | 928 ft | 108 kts | 292° |
| 2026-05-03 21:53 | 37.23408 | -76.90258 | 929 ft | 108 kts | 292° |
| 2026-05-03 21:53 | 37.23818 | -76.91396 | 932 ft | 108 kts | 292° |
| 2026-05-03 21:54 | 37.24111 | -76.92265 | 933 ft | 108 kts | 292° |
| 2026-05-03 21:54 | 37.24308 | -76.92856 | 934 ft | 109 kts | 291° |
| 2026-05-03 21:54 | 37.24606 | -76.93723 | 934 ft | 108 kts | 292° |
| 2026-05-03 21:54 | 37.24907 | -76.94583 | 933 ft | 107 kts | 292° |
| 2026-05-03 21:55 | 37.25197 | -76.95444 | 935 ft | 107 kts | 292° |
| 2026-05-03 21:55 | 37.25479 | -76.96297 | 934 ft | 107 kts | 291° |
| 2026-05-03 21:55 | 37.25785 | -76.97152 | 935 ft | 107 kts | 292° |
| 2026-05-03 21:55 | 37.26101 | -76.98000 | 932 ft | 107 kts | 292° |
| 2026-05-03 21:56 | 37.26415 | -76.98851 | 934 ft | 108 kts | 293° |
| 2026-05-03 21:56 | 37.26718 | -76.99715 | 935 ft | 109 kts | 292° |
| 2026-05-03 21:56 | 37.27017 | -77.00594 | 941 ft | 110 kts | 292° |
| 2026-05-03 21:56 | 37.27325 | -77.01471 | 943 ft | 109 kts | 292° |
| 2026-05-03 21:57 | 37.27629 | -77.02340 | 937 ft | 108 kts | 292° |
| 2026-05-03 21:57 | 37.27919 | -77.03214 | 939 ft | 109 kts | 292° |
| 2026-05-03 21:57 | 37.28209 | -77.04093 | 939 ft | 109 kts | 292° |
| 2026-05-03 21:57 | 37.28508 | -77.04964 | 942 ft | 108 kts | 292° |
| 2026-05-03 21:58 | 37.28805 | -77.05822 | 942 ft | 106 kts | 292° |
| 2026-05-03 21:58 | 37.29095 | -77.06671 | 941 ft | 105 kts | 292° |
| 2026-05-03 21:58 | 37.29381 | -77.07511 | 946 ft | 104 kts | 292° |
| 2026-05-03 21:58 | 37.29667 | -77.08342 | 943 ft | 103 kts | 292° |
| 2026-05-03 21:59 | 37.29954 | -77.09154 | 940 ft | 103 kts | 292° |
| 2026-05-03 21:59 | 37.30249 | -77.09975 | 944 ft | 103 kts | 292° |
| 2026-05-03 21:59 | 37.30540 | -77.10797 | 940 ft | 103 kts | 292° |
| 2026-05-03 21:59 | 37.30825 | -77.11629 | 935 ft | 104 kts | 292° |
| 2026-05-03 22:00 | 37.31112 | -77.12475 | 936 ft | 106 kts | 292° |
| 2026-05-03 22:00 | 37.31405 | -77.13341 | 935 ft | 108 kts | 292° |
| 2026-05-03 22:00 | 37.31703 | -77.14220 | 937 ft | 110 kts | 292° |
| 2026-05-03 22:00 | 37.32003 | -77.15106 | 937 ft | 111 kts | 292° |
| 2026-05-03 22:01 | 37.32312 | -77.15999 | 935 ft | 112 kts | 292° |
| 2026-05-03 22:01 | 37.32630 | -77.16892 | 937 ft | 112 kts | 292° |
| 2026-05-03 22:01 | 37.32946 | -77.17770 | 940 ft | 111 kts | 292° |
| 2026-05-03 22:01 | 37.33260 | -77.18639 | 936 ft | 108 kts | 292° |
| 2026-05-03 22:02 | 37.33566 | -77.19493 | 936 ft | 107 kts | 292° |
| 2026-05-03 22:02 | 37.33865 | -77.20345 | 937 ft | 106 kts | 292° |
| 2026-05-03 22:02 | 37.34152 | -77.21195 | 935 ft | 105 kts | 292° |
| 2026-05-03 22:02 | 37.34337 | -77.22080 | 938 ft | 105 kts | 277° |
| 2026-05-03 22:03 | 37.34210 | -77.22989 | 899 ft | 108 kts | 250° |
| 2026-05-03 22:03 | 37.33833 | -77.23812 | 894 ft | 109 kts | 241° |
| 2026-05-03 22:03 | 37.33427 | -77.24615 | 870 ft | 106 kts | 242° |
| 2026-05-03 22:03 | 37.33057 | -77.25321 | 826 ft | 89 kts | 241° |
| 2026-05-03 22:04 | 37.32726 | -77.25920 | 834 ft | 79 kts | 242° |
| 2026-05-03 22:04 | 37.32420 | -77.26449 | 826 ft | 72 kts | 239° |
| 2026-05-03 22:04 | 37.32123 | -77.26929 | 593 ft | 67 kts | 239° |
| 2026-05-03 22:04 | 37.31838 | -77.27365 | 449 ft | 63 kts | 238° |
| 2026-05-03 22:05 | 37.31591 | -77.27741 | 321 ft | 50 kts | 237° |
| 2026-05-03 22:05 | 37.31384 | -77.28048 | 288 ft | 42 kts | 241° |
| 2026-05-03 22:05 | 37.31209 | -77.28315 | 266 ft | 38 kts | 241° |
| 2026-05-03 22:05 | 37.31053 | -77.28556 | 211 ft | 30 kts | 242° |
| 2026-05-03 22:06 | 37.30949 | -77.28709 | 166 ft | 17 kts | 250° |
| 2026-05-03 22:06 | 37.30902 | -77.28805 | 118 ft | 12 kts | 255° |
| 2026-05-03 22:06 | 37.30880 | -77.28909 | 98 ft | 13 kts | 243° |
| 2026-05-03 22:06 | 37.30846 | -77.28983 | 50 ft | 5 kts | 229° |
| 2026-05-03 22:07 | 37.30832 | -77.29003 | 34 ft | 3 kts | 225° |
| 2026-05-03 22:07 | 37.30829 | -77.29008 | 28 ft | 0 kts | 214° |